Time;durP1;ratioP1;P1;durP2;ratioP2;P2;SDS_P1;SDS_P2;PMS_P1;PMS_P2;Temp;Humidity;BMP_temperature;BMP_pressure;BME280_temperature;BME280_humidity;BME280_pressure;Samples;Min_cycle;Max_cycle;Signal;HPM_P1;HPM_P2
2024/03/03 00:00:04;;;;;;;5.70;3.00;;;9.20;99.90;;;;;;5082925;28;20043;-67
2024/03/03 00:02:30;;;;;;;4.50;3.25;;;9.20;99.90;;;;;;5082195;28;20040;-67
2024/03/03 00:04:56;;;;;;;3.50;3.08;;;9.30;99.90;;;;;;5082076;28;20051;-67
2024/03/03 00:07:21;;;;;;;3.95;3.20;;;9.30;99.90;;;;;;5113099;27;20044;-67
2024/03/03 00:09:47;;;;;;;6.55;3.05;;;9.30;99.90;;;;;;5080338;28;20069;-67
2024/03/03 00:12:13;;;;;;;4.60;2.85;;;9.30;99.90;;;;;;5082369;28;20044;-67
2024/03/03 00:14:38;;;;;;;6.25;3.35;;;9.40;99.90;;;;;;5081531;28;20048;-67
2024/03/03 00:17:04;;;;;;;4.38;3.63;;;9.50;99.90;;;;;;5081822;28;21460;-67
2024/03/03 00:19:30;;;;;;;3.25;2.95;;;9.50;99.90;;;;;;5084224;28;20092;-67
2024/03/03 00:21:55;;;;;;;4.00;3.22;;;9.50;99.90;;;;;;5080174;28;20128;-67
2024/03/03 00:24:21;;;;;;;4.38;3.40;;;9.60;99.90;;;;;;5082389;28;20032;-67
2024/03/03 00:26:46;;;;;;;4.43;3.60;;;9.60;99.90;;;;;;5082442;28;20558;-67
2024/03/03 00:29:13;;;;;;;3.58;3.28;;;9.60;99.90;;;;;;5080083;28;20043;-67
2024/03/03 00:31:43;;;;;;;3.25;3.00;;;9.70;99.90;;;;;;5078171;28;20055;-67
2024/03/03 00:34:09;;;;;;;3.33;3.00;;;9.70;99.90;;;;;;5076619;28;20048;-67
2024/03/03 00:36:34;;;;;;;4.10;3.20;;;9.80;99.90;;;;;;5083373;28;20496;-67
2024/03/03 00:39:00;;;;;;;4.82;3.17;;;9.80;99.90;;;;;;5108711;27;20060;-67
2024/03/03 00:41:26;;;;;;;4.57;3.25;;;10.20;99.90;;;;;;5081559;28;20055;-67
2024/03/03 00:43:52;;;;;;;3.60;3.30;;;9.90;99.90;;;;;;5076164;28;20394;-67
2024/03/03 00:46:17;;;;;;;4.43;3.30;;;9.90;99.90;;;;;;5080600;28;20047;-67
2024/03/03 00:48:43;;;;;;;3.47;3.17;;;9.80;99.90;;;;;;5081030;28;20371;-67
2024/03/03 00:51:08;;;;;;;3.72;2.97;;;9.90;99.90;;;;;;5111207;27;20058;-67
2024/03/03 00:53:34;;;;;;;3.22;2.92;;;9.90;99.90;;;;;;5082698;28;20068;-67
2024/03/03 00:56:00;;;;;;;3.78;3.38;;;9.90;99.90;;;;;;5082727;28;20432;-67
2024/03/03 00:58:25;;;;;;;3.95;3.55;;;9.90;99.90;;;;;;5081137;28;20090;-67
2024/03/03 01:00:51;;;;;;;3.88;3.33;;;9.90;99.90;;;;;;5080548;28;20055;-67
2024/03/03 01:03:17;;;;;;;4.47;3.92;;;9.90;99.90;;;;;;5083014;28;20032;-67
2024/03/03 01:05:42;;;;;;;5.03;3.78;;;10.00;99.90;;;;;;5079917;28;20036;-67
2024/03/03 01:08:08;;;;;;;5.60;4.15;;;9.90;99.90;;;;;;5113543;27;20049;-67
2024/03/03 01:10:33;;;;;;;4.15;3.65;;;9.90;99.90;;;;;;5078141;28;20059;-67
2024/03/03 01:12:59;;;;;;;7.38;3.95;;;10.00;99.90;;;;;;5083036;28;20038;-67
2024/03/03 01:15:25;;;;;;;5.82;4.00;;;10.00;99.90;;;;;;5080568;28;20582;-67
2024/03/03 01:17:50;;;;;;;4.82;3.55;;;10.00;99.90;;;;;;5080094;28;20036;-67
2024/03/03 01:20:16;;;;;;;5.88;4.20;;;10.00;99.90;;;;;;5078345;28;20440;-67
2024/03/03 01:22:42;;;;;;;4.43;4.05;;;10.00;99.90;;;;;;5081540;28;20123;-67
2024/03/03 01:25:08;;;;;;;5.90;4.90;;;10.00;99.90;;;;;;5081144;28;20032;-67
2024/03/03 01:27:33;;;;;;;4.20;3.58;;;10.00;99.90;;;;;;5071108;28;20040;-67
2024/03/03 01:29:59;;;;;;;4.78;4.18;;;10.00;99.90;;;;;;5079815;28;20068;-67
2024/03/03 01:32:25;;;;;;;4.47;4.07;;;10.20;99.90;;;;;;5082669;28;20135;-67
2024/03/03 01:34:51;;;;;;;7.45;4.63;;;10.00;99.90;;;;;;5081347;28;20489;-67
2024/03/03 01:37:19;;;;;;;8.20;4.85;;;10.00;99.90;;;;;;5081273;28;20043;-67
2024/03/03 01:39:48;;;;;;;7.40;4.22;;;9.90;99.90;;;;;;5081702;28;20452;-67
2024/03/03 01:42:14;;;;;;;5.70;4.35;;;9.90;99.90;;;;;;5079320;28;20043;-67
2024/03/03 01:44:42;;;;;;;6.25;4.13;;;9.90;99.90;;;;;;5078478;28;20074;-67
2024/03/03 01:47:09;;;;;;;4.63;4.05;;;9.90;99.90;;;;;;5082241;28;20498;-67
2024/03/03 01:49:37;;;;;;;5.00;4.00;;;9.90;99.90;;;;;;5077065;28;20055;-67
2024/03/03 01:52:05;;;;;;;5.20;4.38;;;9.90;99.90;;;;;;5080413;28;20036;-67
2024/03/03 01:54:38;;;;;;;5.95;4.72;;;9.90;99.90;;;;;;5079874;28;20482;-67
2024/03/03 01:57:09;;;;;;;5.32;4.68;;;9.90;99.90;;;;;;5077485;28;20037;-67
2024/03/03 01:59:35;;;;;;;4.80;4.15;;;9.90;99.90;;;;;;5082410;28;20036;-67
2024/03/03 02:02:02;;;;;;;5.38;4.88;;;9.90;99.90;;;;;;5080798;28;20064;-67
2024/03/03 02:04:28;;;;;;;4.90;4.40;;;10.00;99.90;;;;;;5080270;28;20435;-67
2024/03/03 02:06:55;;;;;;;6.93;4.60;;;9.90;99.90;;;;;;5080666;28;20097;-67
2024/03/03 02:09:21;;;;;;;7.60;5.10;;;9.90;99.90;;;;;;5080674;28;20123;-67
2024/03/03 02:11:47;;;;;;;5.82;4.65;;;9.90;99.90;;;;;;5107195;28;20052;-67
2024/03/03 02:14:13;;;;;;;5.78;4.95;;;9.90;99.90;;;;;;5078729;28;20154;-67
2024/03/03 02:16:38;;;;;;;7.18;4.57;;;9.80;99.90;;;;;;5078939;28;20412;-67
2024/03/03 02:19:04;;;;;;;6.55;5.10;;;9.90;99.90;;;;;;5079525;28;20066;-67
2024/03/03 02:21:30;;;;;;;5.30;4.28;;;9.90;99.90;;;;;;5084098;28;20103;-67
2024/03/03 02:23:55;;;;;;;7.18;5.68;;;9.90;99.90;;;;;;5081219;28;20043;-67
2024/03/03 02:26:23;;;;;;;7.60;6.10;;;9.90;99.90;;;;;;5080331;28;20040;-67
2024/03/03 02:28:51;;;;;;;5.70;5.10;;;10.00;99.90;;;;;;5080254;28;20383;-67
2024/03/03 02:31:17;;;;;;;5.82;5.07;;;9.90;99.90;;;;;;5077545;28;20076;-67
2024/03/03 02:33:43;;;;;;;10.18;5.20;;;9.90;99.90;;;;;;5078941;28;20040;-67
2024/03/03 02:36:09;;;;;;;6.43;5.25;;;9.90;99.90;;;;;;5081108;28;20098;-67
2024/03/03 02:38:35;;;;;;;6.95;6.03;;;9.90;99.90;;;;;;5079115;28;20078;-67
2024/03/03 02:41:01;;;;;;;7.95;5.20;;;9.90;99.90;;;;;;5077316;28;20085;-67
2024/03/03 02:43:26;;;;;;;5.35;4.80;;;9.90;99.90;;;;;;5078819;28;20759;-67
2024/03/03 02:45:52;;;;;;;5.28;4.68;;;9.90;99.90;;;;;;5074250;28;20565;-67
2024/03/03 02:48:18;;;;;;;5.95;5.35;;;9.80;99.90;;;;;;5073628;28;20076;-67
2024/03/03 02:50:44;;;;;;;5.97;5.32;;;9.80;99.90;;;;;;5078683;28;20044;-67
2024/03/03 02:53:10;;;;;;;6.03;4.85;;;9.80;99.90;;;;;;5083577;28;20070;-67
2024/03/03 02:55:36;;;;;;;6.45;5.57;;;9.80;99.90;;;;;;5064751;28;20457;-67
2024/03/03 02:58:02;;;;;;;6.57;5.65;;;9.80;99.90;;;;;;5075816;28;20478;-67
2024/03/03 03:00:28;;;;;;;6.15;5.13;;;10.00;99.90;;;;;;5077681;28;20041;-67
2024/03/03 03:02:54;;;;;;;6.47;5.82;;;9.70;99.90;;;;;;5078605;28;20059;-67
2024/03/03 03:05:19;;;;;;;9.07;7.45;;;10.20;99.90;;;;;;5077835;28;20040;-67
2024/03/03 03:07:45;;;;;;;10.55;7.80;;;9.80;99.90;;;;;;5085863;28;20363;-67
2024/03/03 03:10:10;;;;;;;10.45;7.50;;;9.80;99.90;;;;;;5076025;28;20437;-67
2024/03/03 03:12:36;;;;;;;8.25;6.60;;;9.70;99.90;;;;;;5083513;28;20032;-67
2024/03/03 03:15:02;;;;;;;6.80;5.80;;;9.70;99.90;;;;;;5078250;28;20054;-67
2024/03/03 03:17:27;;;;;;;7.97;6.60;;;9.70;99.90;;;;;;5068068;28;20486;-67
2024/03/03 03:19:53;;;;;;;6.88;5.85;;;9.60;99.90;;;;;;5080871;28;20367;-67
2024/03/03 03:22:20;;;;;;;8.43;6.95;;;9.70;99.90;;;;;;5083495;28;20075;-67
2024/03/03 03:24:45;;;;;;;8.43;6.35;;;9.70;99.90;;;;;;5078049;28;20079;-67
2024/03/03 03:27:11;;;;;;;9.55;8.10;;;9.60;99.90;;;;;;5065259;28;20067;-67
2024/03/03 03:29:37;;;;;;;9.60;7.78;;;9.60;99.90;;;;;;5082897;28;20032;-67
2024/03/03 03:32:02;;;;;;;11.63;9.15;;;9.60;99.90;;;;;;5078453;28;20075;-67
2024/03/03 03:34:28;;;;;;;8.23;7.30;;;9.60;99.90;;;;;;5083744;28;20043;-67
2024/03/03 03:36:54;;;;;;;8.38;6.70;;;9.50;99.90;;;;;;5086243;28;20535;-67
2024/03/03 03:39:20;;;;;;;9.10;7.60;;;9.40;99.90;;;;;;5084789;28;20044;-67
2024/03/03 03:41:47;;;;;;;7.40;6.70;;;9.30;99.90;;;;;;5087760;28;20040;-67
2024/03/03 03:44:14;;;;;;;8.65;7.65;;;9.40;99.90;;;;;;5086044;28;20432;-67
2024/03/03 03:46:40;;;;;;;8.57;7.53;;;9.30;99.90;;;;;;5084945;28;20032;-67
2024/03/03 03:49:14;;;;;;;10.05;8.30;;;9.20;99.90;;;;;;5082047;28;20085;-67
2024/03/03 03:51:40;;;;;;;7.35;6.65;;;9.10;99.90;;;;;;5114440;27;20076;-67
2024/03/03 03:54:07;;;;;;;9.98;7.63;;;9.10;99.90;;;;;;5079335;28;20039;-67
2024/03/03 03:56:36;;;;;;;8.57;7.70;;;9.00;99.90;;;;;;5081205;28;20444;-67
2024/03/03 03:59:03;;;;;;;8.55;7.65;;;9.00;99.90;;;;;;5080041;28;20089;-67
2024/03/03 04:01:28;;;;;;;9.23;7.55;;;9.00;99.90;;;;;;5080518;28;20075;-67
2024/03/03 04:03:55;;;;;;;8.63;7.55;;;8.90;99.90;;;;;;5083903;28;20064;-67
2024/03/03 04:06:22;;;;;;;11.05;8.18;;;8.90;99.90;;;;;;5085125;28;20092;-67
2024/03/03 04:08:48;;;;;;;9.98;7.43;;;8.90;99.90;;;;;;5078948;28;20049;-67
2024/03/03 04:11:13;;;;;;;9.90;7.93;;;8.80;99.90;;;;;;5084905;28;20044;-67
2024/03/03 04:13:39;;;;;;;10.30;9.20;;;8.70;99.90;;;;;;5082513;28;20040;-67
2024/03/03 04:16:06;;;;;;;10.27;8.63;;;8.70;99.90;;;;;;5083164;28;20698;-67
2024/03/03 04:18:32;;;;;;;10.85;9.75;;;8.60;99.90;;;;;;5084720;28;20050;-67
2024/03/03 04:20:58;;;;;;;10.05;8.13;;;8.60;99.90;;;;;;5064898;28;20312;-67
2024/03/03 04:23:24;;;;;;;10.57;8.00;;;8.60;99.90;;;;;;5078192;28;20958;-67
2024/03/03 04:25:49;;;;;;;8.93;8.02;;;8.60;99.90;;;;;;5084563;28;20040;-67
2024/03/03 04:28:15;;;;;;;9.23;8.27;;;8.50;99.90;;;;;;5082071;28;20055;-67
2024/03/03 04:30:40;;;;;;;8.93;8.02;;;8.50;99.90;;;;;;5080007;28;20063;-67
2024/03/03 04:33:06;;;;;;;9.00;7.78;;;8.50;99.90;;;;;;5085685;28;20046;-67
2024/03/03 04:35:32;;;;;;;8.23;7.43;;;8.40;99.90;;;;;;5083818;28;20036;-67
2024/03/03 04:37:57;;;;;;;12.07;7.63;;;8.30;99.90;;;;;;5081670;28;20036;-67
2024/03/03 04:40:23;;;;;;;10.30;8.77;;;8.20;99.90;;;;;;5085078;28;20036;-67
2024/03/03 04:42:48;;;;;;;11.23;8.70;;;8.20;99.90;;;;;;5083168;28;20517;-67
2024/03/03 04:45:17;;;;;;;14.27;10.10;;;8.20;99.90;;;;;;5081777;28;20098;-67
2024/03/03 04:47:42;;;;;;;11.88;9.82;;;8.20;99.90;;;;;;5082099;28;20047;-67
2024/03/03 04:50:08;;;;;;;9.43;8.02;;;8.20;99.90;;;;;;5081782;28;20043;-67
2024/03/03 04:52:35;;;;;;;9.88;8.82;;;8.20;99.90;;;;;;5081082;28;20495;-67
2024/03/03 04:55:01;;;;;;;12.38;10.88;;;8.20;99.90;;;;;;5096476;27;20043;-67
2024/03/03 04:57:26;;;;;;;8.85;7.95;;;8.20;99.90;;;;;;5111916;27;20111;-67
2024/03/03 04:59:52;;;;;;;11.52;8.05;;;8.10;99.90;;;;;;5080502;28;20048;-67
2024/03/03 05:02:18;;;;;;;8.63;7.40;;;8.10;99.90;;;;;;5082345;28;20043;-67
2024/03/03 05:04:44;;;;;;;9.15;7.25;;;8.10;99.90;;;;;;5080127;28;20894;-67
2024/03/03 05:07:10;;;;;;;9.80;7.78;;;8.10;99.90;;;;;;5083274;28;20039;-67
2024/03/03 05:09:38;;;;;;;8.88;7.40;;;7.90;99.90;;;;;;5078874;28;20039;-67
2024/03/03 05:12:04;;;;;;;9.18;7.93;;;7.90;99.90;;;;;;5087409;28;20044;-67
2024/03/03 05:14:30;;;;;;;8.45;7.22;;;7.90;99.90;;;;;;5089664;28;20557;-67
2024/03/03 05:16:56;;;;;;;10.38;7.97;;;7.90;99.90;;;;;;5079418;28;20130;-67
2024/03/03 05:19:22;;;;;;;8.65;7.72;;;7.80;99.90;;;;;;5074894;28;20103;-67
2024/03/03 05:21:49;;;;;;;9.25;7.88;;;7.80;99.90;;;;;;5078395;28;20113;-67
2024/03/03 05:24:16;;;;;;;9.88;7.18;;;7.80;99.90;;;;;;5080346;28;20098;-67
2024/03/03 05:26:42;;;;;;;11.05;8.05;;;7.80;99.90;;;;;;5080288;28;20067;-66
2024/03/03 05:29:08;;;;;;;8.25;6.75;;;7.80;99.90;;;;;;5080730;28;20043;-67
2024/03/03 05:31:40;;;;;;;8.10;7.30;;;7.70;99.90;;;;;;5081408;28;20040;-67
2024/03/03 05:34:06;;;;;;;8.18;7.38;;;7.70;99.90;;;;;;5079881;28;20675;-67
2024/03/03 05:36:33;;;;;;;10.65;7.40;;;7.80;99.90;;;;;;5082508;28;20032;-67
2024/03/03 05:38:59;;;;;;;8.52;7.00;;;7.80;99.90;;;;;;5109303;27;20105;-67
2024/03/03 05:41:28;;;;;;;9.82;7.90;;;7.80;99.90;;;;;;5079722;28;20036;-67
2024/03/03 05:43:53;;;;;;;9.48;8.05;;;7.80;99.90;;;;;;5081144;28;20386;-67
2024/03/03 05:46:19;;;;;;;8.32;7.43;;;7.70;99.90;;;;;;5079688;28;20048;-67
2024/03/03 05:48:44;;;;;;;8.55;6.95;;;7.70;99.90;;;;;;5077242;28;20044;-67
2024/03/03 05:51:10;;;;;;;8.98;7.75;;;7.70;99.90;;;;;;5107455;27;20042;-67
2024/03/03 05:53:37;;;;;;;8.07;7.28;;;7.70;99.90;;;;;;5078415;28;20574;-67
2024/03/03 05:56:03;;;;;;;10.68;7.25;;;7.70;99.90;;;;;;5086149;28;20166;-66
2024/03/03 05:58:29;;;;;;;11.90;7.38;;;7.60;99.90;;;;;;5081920;28;20497;-67
2024/03/03 06:00:54;;;;;;;10.05;7.95;;;7.60;99.90;;;;;;5108151;27;20050;-67
2024/03/03 06:03:20;;;;;;;9.20;7.43;;;7.60;99.90;;;;;;5079590;28;20029;-67
2024/03/03 06:05:45;;;;;;;7.63;6.93;;;7.60;99.90;;;;;;5081079;28;20509;-67
2024/03/03 06:08:13;;;;;;;9.95;8.63;;;7.50;99.90;;;;;;5079501;28;20079;-67
2024/03/03 06:10:39;;;;;;;14.52;7.75;;;7.50;99.90;;;;;;5080420;28;20212;-67
2024/03/03 06:13:04;;;;;;;9.00;7.25;;;7.60;99.90;;;;;;5084383;28;20118;-67
2024/03/03 06:15:30;;;;;;;9.05;7.95;;;7.60;99.90;;;;;;5076409;28;20058;-67
2024/03/03 06:17:56;;;;;;;10.20;8.13;;;7.60;99.90;;;;;;5085749;28;20457;-67
2024/03/03 06:20:21;;;;;;;9.52;8.23;;;7.60;99.90;;;;;;5087370;28;20039;-67
2024/03/03 06:22:47;;;;;;;10.48;8.38;;;7.60;99.90;;;;;;5061205;28;20557;-67
2024/03/03 06:25:13;;;;;;;8.30;7.30;;;7.60;99.90;;;;;;5078227;28;20437;-67
2024/03/03 06:27:39;;;;;;;11.13;7.65;;;7.60;99.90;;;;;;5076532;28;20130;-67
2024/03/03 06:30:05;;;;;;;8.75;7.38;;;7.60;99.90;;;;;;5080257;28;20417;-67
2024/03/03 06:32:31;;;;;;;9.77;7.53;;;7.60;99.90;;;;;;5082672;28;20039;-67
2024/03/03 06:34:57;;;;;;;9.52;8.50;;;7.60;99.90;;;;;;5080781;28;20471;-67
2024/03/03 06:37:23;;;;;;;9.00;8.10;;;7.60;99.90;;;;;;5063151;28;20087;-67
2024/03/03 06:39:50;;;;;;;8.75;7.85;;;7.60;99.90;;;;;;5083224;28;20069;-67
2024/03/03 06:42:16;;;;;;;9.80;8.07;;;7.60;99.90;;;;;;5076030;28;20097;-66
2024/03/03 06:44:42;;;;;;;10.13;8.05;;;7.70;99.90;;;;;;5106803;27;20040;-66
2024/03/03 06:47:08;;;;;;;8.70;7.68;;;7.70;99.90;;;;;;5083105;28;20851;-66
2024/03/03 06:49:33;;;;;;;10.73;8.18;;;7.70;99.90;;;;;;5081566;28;20036;-66
2024/03/03 06:51:59;;;;;;;10.38;8.65;;;7.60;99.90;;;;;;5085360;28;20452;-67
2024/03/03 06:54:25;;;;;;;11.85;8.85;;;7.70;99.90;;;;;;5081573;28;20036;-67
2024/03/03 06:56:50;;;;;;;10.55;8.13;;;7.70;99.90;;;;;;5077233;28;20032;-67
2024/03/03 06:59:16;;;;;;;8.77;7.22;;;8.10;99.90;;;;;;5079710;28;20078;-67
2024/03/03 07:01:42;;;;;;;10.68;7.85;;;8.80;99.90;;;;;;5079926;28;20494;-67
2024/03/03 07:04:19;;;;;;;10.85;7.60;;;9.50;99.90;;;;;;5074848;28;20036;-67
2024/03/03 07:06:45;;;;;;;8.43;7.07;;;10.00;99.90;;;;;;5081989;28;20040;-67
2024/03/03 07:09:10;;;;;;;8.93;7.68;;;10.40;99.90;;;;;;5079062;28;20044;-67
2024/03/03 07:11:36;;;;;;;9.55;8.02;;;10.60;99.90;;;;;;5076830;28;20044;-67
2024/03/03 07:14:03;;;;;;;9.68;8.15;;;10.70;99.90;;;;;;5076755;28;20041;-67
2024/03/03 07:16:29;;;;;;;8.50;7.70;;;11.00;99.90;;;;;;5078897;28;20051;-67
2024/03/03 07:18:54;;;;;;;9.93;8.57;;;11.00;99.90;;;;;;5078265;28;20490;-67
2024/03/03 07:21:20;;;;;;;10.00;8.63;;;10.70;99.90;;;;;;5081244;28;20040;-67
2024/03/03 07:23:46;;;;;;;10.35;9.32;;;10.40;99.90;;;;;;5076416;28;20127;-67
2024/03/03 07:26:11;;;;;;;9.48;8.07;;;10.00;99.90;;;;;;5080883;28;21974;-67
2024/03/03 07:28:37;;;;;;;11.70;8.93;;;9.80;99.90;;;;;;5078687;28;20067;-66
2024/03/03 07:31:03;;;;;;;12.27;9.55;;;9.60;99.90;;;;;;5081208;28;20064;-67
2024/03/03 07:33:30;;;;;;;10.70;8.48;;;9.40;99.90;;;;;;5080816;28;20072;-67
2024/03/03 07:35:55;;;;;;;10.00;8.55;;;9.30;99.90;;;;;;5079701;28;20055;-67
2024/03/03 07:38:21;;;;;;;9.60;8.25;;;9.20;99.90;;;;;;5081224;28;20052;-67
2024/03/03 07:40:47;;;;;;;10.07;8.98;;;9.00;99.90;;;;;;5087308;28;20123;-67
2024/03/03 07:43:14;;;;;;;9.82;8.55;;;9.00;99.90;;;;;;5082918;28;20127;-67
2024/03/03 07:45:40;;;;;;;10.05;8.30;;;8.90;99.90;;;;;;5077914;28;20082;-67
2024/03/03 07:48:06;;;;;;;11.65;9.75;;;8.90;99.90;;;;;;5084319;28;20082;-67
2024/03/03 07:50:32;;;;;;;11.88;8.75;;;8.90;99.90;;;;;;5081337;28;20040;-66
2024/03/03 07:52:58;;;;;;;10.10;9.10;;;8.90;99.90;;;;;;5071114;28;20032;-66
2024/03/03 07:55:23;;;;;;;9.65;8.35;;;8.90;99.90;;;;;;5073234;28;20047;-66
2024/03/03 07:57:49;;;;;;;9.48;8.48;;;8.90;99.90;;;;;;5079177;28;20504;-67
2024/03/03 08:00:15;;;;;;;11.65;9.32;;;9.10;99.90;;;;;;5076029;28;20118;-67
2024/03/03 08:02:41;;;;;;;10.95;9.38;;;9.00;99.90;;;;;;5080873;28;20489;-67
2024/03/03 08:05:07;;;;;;;10.50;9.18;;;9.00;99.90;;;;;;5080065;28;20039;-67
2024/03/03 08:07:33;;;;;;;10.18;9.13;;;9.00;99.90;;;;;;5063016;28;20035;-67
2024/03/03 08:09:58;;;;;;;10.63;9.52;;;8.90;99.90;;;;;;5077806;28;20048;-67
2024/03/03 08:12:24;;;;;;;11.07;8.63;;;9.00;99.90;;;;;;5079568;28;20048;-67
2024/03/03 08:14:50;;;;;;;10.68;9.02;;;9.00;99.90;;;;;;5093503;28;20036;-67
2024/03/03 08:17:15;;;;;;;10.35;9.02;;;9.00;99.90;;;;;;5079556;28;20367;-67
2024/03/03 08:19:41;;;;;;;10.25;8.85;;;9.10;99.90;;;;;;5076201;28;20081;-67
2024/03/03 08:22:09;;;;;;;9.93;8.32;;;9.10;99.90;;;;;;5076878;28;20029;-67
2024/03/03 08:24:34;;;;;;;10.90;9.25;;;9.20;99.90;;;;;;5069955;28;20096;-67
2024/03/03 08:27:00;;;;;;;12.32;9.30;;;9.20;99.90;;;;;;5082141;28;20056;-66
2024/03/03 08:29:26;;;;;;;11.82;8.98;;;9.30;99.90;;;;;;5077213;28;20036;-67
2024/03/03 08:31:51;;;;;;;10.27;9.20;;;9.30;99.90;;;;;;5079369;28;20048;-67
2024/03/03 08:34:17;;;;;;;10.73;9.65;;;9.40;99.90;;;;;;5081686;28;20486;-67
2024/03/03 08:36:43;;;;;;;10.30;9.25;;;9.80;99.90;;;;;;5082794;28;20119;-67
2024/03/03 08:39:11;;;;;;;9.73;8.73;;;9.50;99.90;;;;;;5080260;28;20466;-67
2024/03/03 08:41:40;;;;;;;10.25;8.65;;;9.60;99.90;;;;;;5078617;28;20052;-67
2024/03/03 08:44:06;;;;;;;14.57;9.90;;;9.60;99.90;;;;;;5080483;28;20582;-67
2024/03/03 08:46:32;;;;;;;10.57;8.75;;;9.80;99.90;;;;;;5080978;28;20047;-67
2024/03/03 08:48:57;;;;;;;10.82;8.88;;;9.90;99.90;;;;;;5078635;28;20036;-67
2024/03/03 08:51:23;;;;;;;9.50;8.40;;;10.00;99.90;;;;;;5078346;28;20043;-67
2024/03/03 08:53:48;;;;;;;9.32;8.43;;;10.10;99.90;;;;;;5109580;27;20045;-67
2024/03/03 08:56:14;;;;;;;10.35;9.27;;;10.20;99.90;;;;;;5063794;28;20049;-67
2024/03/03 08:58:40;;;;;;;11.07;9.60;;;10.30;99.90;;;;;;5079976;28;20072;-67
2024/03/03 09:01:06;;;;;;;9.02;8.13;;;10.30;99.90;;;;;;5083992;28;20036;-67
2024/03/03 09:03:32;;;;;;;10.57;8.80;;;10.40;99.90;;;;;;5078849;28;20093;-67
2024/03/03 09:05:58;;;;;;;9.60;8.70;;;10.40;99.90;;;;;;5082154;28;20157;-67
2024/03/03 09:08:24;;;;;;;9.65;8.73;;;10.40;99.90;;;;;;5078377;28;20825;-67
2024/03/03 09:10:56;;;;;;;9.65;8.65;;;10.80;99.90;;;;;;5077328;28;20565;-67
2024/03/03 09:13:21;;;;;;;9.88;8.25;;;10.40;99.90;;;;;;5085318;28;20032;-67
2024/03/03 09:15:47;;;;;;;10.02;8.77;;;10.40;99.90;;;;;;5081643;28;20040;-67
2024/03/03 09:18:13;;;;;;;11.27;9.25;;;10.40;99.90;;;;;;5079669;28;20036;-67
2024/03/03 09:20:39;;;;;;;10.30;9.23;;;10.30;99.90;;;;;;5111041;27;20048;-67
2024/03/03 09:23:04;;;;;;;9.90;8.90;;;10.20;99.90;;;;;;5082323;28;20044;-67
2024/03/03 09:25:30;;;;;;;10.25;9.25;;;10.20;99.90;;;;;;5077497;28;20486;-67
2024/03/03 09:27:56;;;;;;;11.75;10.07;;;10.20;99.90;;;;;;5081286;28;20040;-67
2024/03/03 09:30:21;;;;;;;10.90;9.32;;;10.20;99.90;;;;;;5082740;28;20059;-67
2024/03/03 09:32:51;;;;;;;12.15;10.90;;;10.10;99.90;;;;;;5079881;28;20067;-67
2024/03/03 09:35:16;;;;;;;10.88;9.77;;;10.10;99.90;;;;;;5079386;28;20390;-67
2024/03/03 09:37:42;;;;;;;11.13;10.02;;;10.20;99.90;;;;;;5078562;28;20044;-67
2024/03/03 09:40:16;;;;;;;13.63;11.05;;;10.20;99.90;;;;;;5077344;28;20044;-67
2024/03/03 09:42:46;;;;;;;10.88;9.68;;;10.30;99.90;;;;;;5077645;28;20073;-67
2024/03/03 09:45:14;;;;;;;11.52;10.20;;;10.40;99.90;;;;;;5081195;28;20032;-67
2024/03/03 09:47:40;;;;;;;10.98;9.88;;;10.40;99.90;;;;;;5079109;28;20481;-67
2024/03/03 09:50:15;;;;;;;12.70;10.93;;;10.40;99.90;;;;;;5081325;28;20603;-67
2024/03/03 09:52:44;;;;;;;13.82;10.35;;;10.50;99.90;;;;;;5084043;28;20419;-67
2024/03/03 09:55:10;;;;;;;11.05;9.95;;;10.60;99.90;;;;;;5082334;28;20047;-67
2024/03/03 09:57:40;;;;;;;10.20;9.20;;;10.60;99.90;;;;;;5076993;28;20040;-67
2024/03/03 10:00:07;;;;;;;11.40;9.77;;;10.90;99.90;;;;;;5077504;28;20111;-67
2024/03/03 10:02:37;;;;;;;11.13;10.02;;;10.70;99.90;;;;;;5080102;28;20420;-67
2024/03/03 10:05:04;;;;;;;14.05;11.60;;;10.80;99.90;;;;;;5082390;28;20052;-67
2024/03/03 10:07:38;;;;;;;11.77;10.13;;;10.90;99.90;;;;;;5082547;28;20043;-67
2024/03/03 10:10:05;;;;;;;13.25;10.95;;;10.90;99.90;;;;;;5080014;28;20044;-67
2024/03/03 10:12:32;;;;;;;11.52;10.43;;;11.00;99.90;;;;;;5081597;28;20036;-67
2024/03/03 10:14:59;;;;;;;14.23;9.60;;;11.10;99.90;;;;;;5110426;28;20054;-67
2024/03/03 10:17:25;;;;;;;11.02;9.25;;;11.30;99.90;;;;;;5080791;28;20420;-67
2024/03/03 10:19:50;;;;;;;12.20;10.23;;;11.60;99.90;;;;;;5082416;28;20478;-67
2024/03/03 10:22:20;;;;;;;10.80;9.48;;;11.60;99.90;;;;;;5082665;28;20050;-67
2024/03/03 10:24:47;;;;;;;11.07;9.50;;;11.70;99.90;;;;;;5119446;27;20491;-67
2024/03/03 10:27:17;;;;;;;13.25;10.32;;;11.90;99.90;;;;;;5102637;27;20131;-67
2024/03/03 10:29:44;;;;;;;10.98;8.63;;;12.00;99.90;;;;;;5118374;27;20040;-67
2024/03/03 10:32:10;;;;;;;10.57;9.52;;;12.00;99.90;;;;;;5070454;28;20046;-67
2024/03/03 10:34:37;;;;;;;10.00;9.00;;;12.10;99.90;;;;;;5083838;28;20429;-67
2024/03/03 10:37:04;;;;;;;10.63;9.10;;;12.20;99.90;;;;;;5085611;28;20497;-67
2024/03/03 10:39:35;;;;;;;12.95;9.75;;;12.30;99.90;;;;;;5088391;28;20631;-67
2024/03/03 10:42:06;;;;;;;12.30;9.38;;;12.40;99.90;;;;;;5082570;28;20083;-67
2024/03/03 10:44:32;;;;;;;10.13;8.70;;;12.50;99.90;;;;;;5077724;28;20044;-67
2024/03/03 10:46:57;;;;;;;8.85;7.95;;;12.80;99.90;;;;;;5080969;28;21375;-67
2024/03/03 10:49:25;;;;;;;11.10;8.38;;;13.10;99.90;;;;;;5081427;28;20032;-67
2024/03/03 10:51:53;;;;;;;9.95;7.97;;;13.10;99.90;;;;;;5088753;28;20109;-67
2024/03/03 10:54:30;;;;;;;9.13;7.10;;;13.20;99.90;;;;;;5088295;28;20105;-67
2024/03/03 10:57:03;;;;;;;10.63;8.30;;;13.20;99.90;;;;;;5090855;28;20164;-67
2024/03/03 10:59:33;;;;;;;7.82;7.13;;;13.20;99.90;;;;;;5078976;28;20101;-67
2024/03/03 11:02:01;;;;;;;9.95;7.85;;;13.20;99.90;;;;;;5083771;28;20032;-67
2024/03/03 11:04:31;;;;;;;8.77;7.53;;;13.40;99.90;;;;;;5080300;28;20127;-67
2024/03/03 11:07:03;;;;;;;9.02;8.13;;;13.50;99.90;;;;;;5080467;28;20040;-67
2024/03/03 11:09:29;;;;;;;8.35;7.55;;;13.40;99.90;;;;;;5082768;28;20496;-67
2024/03/03 11:12:03;;;;;;;11.88;8.45;;;13.50;99.90;;;;;;5083750;28;20124;-67
2024/03/03 11:14:43;;;;;;;9.82;8.82;;;13.70;99.90;;;;;;5080022;28;20131;-67
2024/03/03 11:17:14;;;;;;;9.18;8.38;;;13.80;99.90;;;;;;5083861;28;20121;-67
2024/03/03 11:19:50;;;;;;;9.13;7.85;;;13.90;99.90;;;;;;5094508;28;20033;-67
2024/03/03 11:22:25;;;;;;;8.60;7.57;;;14.00;99.90;;;;;;5081783;28;20386;-67
2024/03/03 11:25:08;;;;;;;8.60;7.80;;;14.20;99.90;;;;;;5102875;28;20500;-67
2024/03/03 11:27:37;;;;;;;9.35;8.40;;;14.30;99.90;;;;;;5113188;27;20170;-67
2024/03/03 11:30:03;;;;;;;10.02;8.25;;;14.30;99.90;;;;;;5080469;28;20051;-67
2024/03/03 11:32:31;;;;;;;11.48;7.93;;;14.30;99.90;;;;;;5111984;27;20406;-67
2024/03/03 11:34:58;;;;;;;10.10;8.27;;;14.30;99.90;;;;;;5086686;28;20036;-67
2024/03/03 11:37:25;;;;;;;8.75;7.75;;;14.30;99.90;;;;;;5079507;28;20110;-67
2024/03/03 11:40:01;;;;;;;9.05;8.05;;;14.40;99.90;;;;;;5081423;28;20032;-67
2024/03/03 11:42:32;;;;;;;10.65;9.15;;;14.30;99.90;;;;;;5081528;28;20036;-67
2024/03/03 11:45:03;;;;;;;9.40;8.55;;;14.40;99.90;;;;;;5080465;28;20410;-67
2024/03/03 11:47:30;;;;;;;9.88;8.93;;;14.40;99.90;;;;;;5112188;27;20054;-67
2024/03/03 11:49:59;;;;;;;9.85;8.18;;;14.40;99.90;;;;;;5081294;28;20051;-67
2024/03/03 11:52:43;;;;;;;9.77;8.77;;;14.40;99.90;;;;;;5078804;28;20032;-67
2024/03/03 11:55:30;;;;;;;9.38;8.43;;;14.40;99.90;;;;;;5080678;28;20054;-67
2024/03/03 11:57:58;;;;;;;11.32;8.77;;;14.50;99.90;;;;;;5079563;28;20047;-67
2024/03/03 12:00:26;;;;;;;9.10;8.23;;;14.50;99.90;;;;;;5084512;28;20048;-67
2024/03/03 12:02:53;;;;;;;8.95;8.10;;;14.60;99.90;;;;;;5109339;27;20048;-67
2024/03/03 12:05:20;;;;;;;9.10;8.02;;;14.40;99.90;;;;;;5078686;28;20051;-67
2024/03/03 12:07:48;;;;;;;10.10;8.82;;;14.40;99.90;;;;;;5091317;28;20085;-67
2024/03/03 12:10:15;;;;;;;10.23;9.23;;;14.50;99.90;;;;;;5080025;28;20038;-67
2024/03/03 12:12:45;;;;;;;10.20;8.82;;;14.40;99.90;;;;;;5081013;28;20639;-67
2024/03/03 12:15:11;;;;;;;12.20;10.38;;;14.40;99.90;;;;;;5082860;28;20040;-67
2024/03/03 12:17:37;;;;;;;10.25;9.20;;;14.40;99.90;;;;;;5082003;28;20043;-67
2024/03/03 12:20:06;;;;;;;14.55;8.98;;;14.50;99.90;;;;;;5075041;28;20101;-67
2024/03/03 12:22:35;;;;;;;9.85;8.85;;;14.40;99.90;;;;;;5080097;28;20482;-67
2024/03/03 12:25:01;;;;;;;9.68;8.38;;;14.30;99.90;;;;;;5078844;28;20127;-67
2024/03/03 12:27:27;;;;;;;9.43;8.43;;;14.40;99.90;;;;;;5083131;28;20051;-67
2024/03/03 12:30:05;;;;;;;9.43;8.50;;;14.30;99.90;;;;;;5080276;28;20115;-67
2024/03/03 12:32:30;;;;;;;9.95;8.98;;;14.50;99.90;;;;;;5109164;27;20069;-67
2024/03/03 12:34:56;;;;;;;10.05;9.00;;;14.80;99.90;;;;;;5082441;28;20044;-67
2024/03/03 12:37:24;;;;;;;12.43;10.15;;;14.50;99.90;;;;;;5083136;28;20079;-67
2024/03/03 12:39:51;;;;;;;10.55;9.45;;;14.60;99.90;;;;;;5078970;28;20040;-67
2024/03/03 12:42:17;;;;;;;11.63;10.00;;;14.70;99.90;;;;;;5079341;28;20032;-67
2024/03/03 12:44:43;;;;;;;12.13;9.35;;;14.60;99.90;;;;;;5079274;28;20075;-67